createdAt,value
2022-08-17T00:00:12.051Z,3.28
2022-08-17T00:03:10.524Z,3.50
2022-08-17T00:05:43.952Z,2.85
2022-08-17T00:08:14.909Z,3.05
2022-08-17T00:10:44.793Z,2.60
2022-08-17T00:13:17.841Z,2.53
2022-08-17T00:15:47.192Z,2.57
2022-08-17T00:19:02.047Z,2.70
2022-08-17T00:21:05.689Z,2.38
2022-08-17T00:23:47.910Z,2.90
2022-08-17T00:26:43.716Z,2.67
2022-08-17T00:29:07.449Z,2.42
2022-08-17T00:31:35.844Z,3.25
2022-08-17T00:34:05.283Z,2.95
2022-08-17T00:36:32.813Z,2.65
2022-08-17T00:39:00.341Z,2.92
2022-08-17T00:41:28.953Z,3.33
2022-08-17T00:44:03.691Z,2.70
2022-08-17T00:46:39.504Z,2.80
2022-08-17T00:49:09.444Z,2.67
2022-08-17T00:51:55.448Z,2.83
2022-08-17T00:54:29.866Z,2.58
2022-08-17T00:57:02.722Z,3.08
2022-08-17T00:59:37.024Z,2.75
2022-08-17T01:02:06.475Z,2.72
2022-08-17T01:04:34.350Z,2.67
2022-08-17T01:07:04.702Z,2.53
2022-08-17T01:09:33.613Z,2.85
2022-08-17T01:12:01.682Z,2.60
2022-08-17T01:14:29.229Z,2.75
2022-08-17T01:16:56.934Z,2.65
2022-08-17T01:19:31.512Z,2.63
2022-08-17T01:22:17.993Z,2.42
2022-08-17T01:24:49.951Z,2.70
2022-08-17T01:27:18.628Z,2.80
2022-08-17T01:29:52.453Z,2.90
2022-08-17T01:32:20.782Z,2.75
2022-08-17T01:34:50.485Z,2.72
2022-08-17T01:37:20.212Z,2.80
2022-08-17T01:39:56.575Z,2.45
2022-08-17T01:42:32.683Z,2.60
2022-08-17T01:45:18.224Z,3.20
2022-08-17T01:47:46.582Z,3.20
2022-08-17T01:50:19.030Z,2.92
2022-08-17T01:52:49.494Z,3.17
2022-08-17T01:55:27.127Z,2.75
2022-08-17T01:57:55.233Z,2.80
2022-08-17T02:00:23.212Z,3.22
2022-08-17T02:03:10.669Z,3.13
2022-08-17T02:05:40.601Z,3.10
2022-08-17T02:08:08.191Z,2.88
2022-08-17T02:10:49.843Z,3.70
2022-08-17T02:13:20.221Z,3.10
2022-08-17T02:15:47.760Z,3.38
2022-08-17T02:18:17.073Z,3.00
2022-08-17T02:20:44.651Z,2.92
2022-08-17T02:26:05.653Z,3.15
2022-08-17T02:28:33.432Z,2.60
2022-08-17T02:31:10.201Z,3.15
2022-08-17T02:33:42.545Z,2.88
2022-08-17T02:36:12.984Z,2.95
2022-08-17T02:38:42.418Z,3.03
2022-08-17T02:41:10.002Z,3.28
2022-08-17T02:43:37.572Z,3.15
2022-08-17T02:46:05.097Z,2.70
2022-08-17T02:48:32.571Z,3.10
2022-08-17T02:51:01.361Z,2.85
2022-08-17T02:53:35.555Z,3.10
2022-08-17T02:56:04.462Z,2.90
2022-08-17T02:58:35.011Z,2.70
2022-08-17T03:01:09.773Z,3.20
2022-08-17T03:03:38.777Z,2.97
2022-08-17T03:06:07.846Z,3.22
2022-08-17T03:08:36.562Z,3.15
2022-08-17T03:11:04.272Z,2.95
2022-08-17T03:13:31.882Z,3.00
2022-08-17T03:15:59.443Z,3.10
2022-08-17T03:18:28.136Z,3.20
2022-08-17T03:20:58.073Z,3.40
2022-08-17T03:23:27.313Z,3.33
2022-08-17T03:25:56.067Z,3.38
2022-08-17T03:28:25.036Z,3.20
2022-08-17T03:30:53.082Z,3.10
2022-08-17T03:33:20.813Z,3.38
2022-08-17T03:35:49.188Z,3.33
2022-08-17T03:38:17.554Z,3.42
2022-08-17T03:40:56.878Z,3.25
2022-08-17T03:43:32.072Z,3.50
2022-08-17T03:46:27.900Z,3.38
2022-08-17T03:49:21.728Z,3.35
2022-08-17T03:52:07.913Z,3.10
2022-08-17T03:54:54.412Z,3.40
2022-08-17T03:57:21.974Z,3.45
2022-08-17T03:59:50.202Z,3.60
2022-08-17T04:02:28.692Z,3.10
2022-08-17T04:04:57.304Z,3.60
2022-08-17T04:07:27.899Z,3.40
2022-08-17T04:09:55.548Z,3.50
2022-08-17T04:12:24.563Z,3.35
2022-08-17T04:14:54.659Z,3.20
2022-08-17T04:17:26.074Z,3.30
2022-08-17T04:19:54.551Z,3.03
2022-08-17T04:22:30.601Z,3.25
2022-08-17T04:25:20.239Z,3.10
2022-08-17T04:27:48.901Z,3.22
2022-08-17T04:30:16.466Z,3.10
2022-08-17T04:33:20.628Z,3.08
2022-08-17T04:35:51.308Z,3.20
2022-08-17T04:38:21.684Z,3.50
2022-08-17T04:41:07.967Z,3.60
2022-08-17T04:43:37.685Z,3.67
2022-08-17T04:46:09.047Z,3.40
2022-08-17T04:48:44.901Z,2.70
2022-08-17T04:51:13.891Z,3.08
2022-08-17T04:53:44.460Z,3.25
2022-08-17T04:56:16.937Z,3.25
2022-08-17T04:58:49.896Z,3.30
2022-08-17T05:01:23.831Z,3.30
2022-08-17T05:03:54.061Z,2.88
2022-08-17T05:06:22.800Z,3.40
2022-08-17T05:08:50.322Z,3.05
2022-08-17T05:11:18.783Z,3.00
2022-08-17T05:13:46.643Z,3.05
2022-08-17T05:16:14.141Z,3.22
2022-08-17T05:18:41.723Z,3.42
2022-08-17T05:21:09.293Z,3.15
2022-08-17T05:23:41.716Z,2.80
2022-08-17T05:26:23.167Z,3.20
2022-08-17T05:28:54.763Z,2.80
2022-08-17T05:31:25.456Z,2.80
2022-08-17T05:33:53.512Z,2.83
2022-08-17T05:36:37.870Z,2.90
2022-08-17T05:39:08.722Z,2.90
2022-08-17T05:41:43.243Z,3.08
2022-08-17T05:44:11.803Z,3.30
2022-08-17T05:46:43.673Z,2.97
2022-08-17T05:49:14.033Z,2.70
2022-08-17T05:51:59.859Z,2.72
2022-08-17T05:54:39.710Z,3.40
2022-08-17T05:57:47.641Z,3.13
2022-08-17T06:00:35.421Z,3.67
2022-08-17T06:03:19.079Z,4.00
2022-08-17T06:06:20.275Z,4.00
2022-08-17T06:09:35.883Z,3.63
2022-08-17T06:12:14.217Z,3.40
2022-08-17T06:14:58.553Z,3.53
2022-08-17T06:20:10.715Z,3.55
2022-08-17T06:22:49.713Z,3.78
2022-08-17T06:25:48.130Z,4.82
2022-08-17T06:28:31.154Z,7.63
2022-08-17T06:31:07.029Z,5.85
2022-08-17T06:33:38.359Z,4.38
2022-08-17T06:36:39.597Z,4.10
2022-08-17T06:39:44.762Z,3.97
2022-08-17T06:43:02.331Z,3.95
2022-08-17T06:45:38.326Z,4.07
2022-08-17T06:48:31.881Z,4.82
2022-08-17T06:51:19.273Z,4.83
2022-08-17T06:53:59.807Z,4.38
2022-08-17T06:56:54.358Z,4.57
2022-08-17T06:59:53.176Z,4.10
2022-08-17T07:02:52.249Z,4.70
2022-08-17T07:05:39.572Z,4.38
2022-08-17T07:08:35.023Z,4.50
2022-08-17T07:11:13.153Z,4.03
2022-08-17T07:14:17.211Z,4.13
2022-08-17T07:16:49.063Z,4.00
2022-08-17T07:19:19.992Z,5.15
2022-08-17T07:22:14.169Z,4.22
2022-08-17T07:24:47.581Z,4.20
2022-08-17T07:27:22.119Z,3.17
2022-08-17T07:29:53.802Z,3.35
2022-08-17T07:32:34.443Z,4.10
2022-08-17T07:35:15.144Z,3.60
2022-08-17T07:37:55.723Z,3.85
2022-08-17T07:40:34.284Z,3.28
2022-08-17T07:43:15.590Z,3.22
2022-08-17T07:46:16.983Z,3.45
2022-08-17T07:48:50.534Z,4.07
2022-08-17T07:54:13.082Z,3.80
2022-08-17T07:56:50.354Z,3.60
2022-08-17T07:59:33.980Z,3.92
2022-08-17T08:05:01.338Z,3.45
2022-08-17T08:07:40.194Z,4.20
2022-08-17T08:10:16.063Z,4.05
2022-08-17T08:13:05.947Z,4.72
2022-08-17T08:15:45.244Z,6.18
2022-08-17T08:18:55.493Z,5.82
2022-08-17T08:21:47.340Z,5.90
2022-08-17T08:24:30.084Z,5.32
2022-08-17T08:27:55.900Z,5.55
2022-08-17T08:30:23.724Z,6.18
2022-08-17T08:33:04.964Z,5.30
2022-08-17T08:35:59.344Z,5.80
2022-08-17T08:38:53.659Z,5.55
2022-08-17T08:41:30.213Z,5.22
2022-08-17T08:44:06.632Z,5.43
2022-08-17T08:46:42.559Z,5.50
2022-08-17T08:49:12.853Z,5.40
2022-08-17T08:51:57.514Z,4.18
2022-08-17T08:54:42.709Z,4.40
2022-08-17T08:57:59.530Z,4.07
2022-08-17T09:00:32.953Z,3.75
2022-08-17T09:03:20.305Z,4.53
2022-08-17T09:06:03.785Z,4.60
2022-08-17T09:08:55.929Z,5.60
2022-08-17T09:11:32.292Z,4.80
2022-08-17T09:14:21.546Z,4.80
2022-08-17T09:17:05.875Z,5.07
2022-08-17T09:19:45.665Z,4.50
2022-08-17T09:22:24.370Z,4.28
2022-08-17T09:24:58.545Z,4.43
2022-08-17T09:27:50.678Z,4.90
2022-08-17T09:30:19.794Z,4.13
2022-08-17T09:32:52.196Z,4.07
2022-08-17T09:35:45.713Z,4.22
2022-08-17T09:38:35.300Z,4.05
2022-08-17T09:41:48.983Z,4.22
2022-08-17T09:44:37.156Z,3.63
2022-08-17T09:47:22.752Z,3.67
2022-08-17T09:49:56.874Z,3.70
2022-08-17T09:52:28.633Z,3.63
2022-08-17T09:54:58.353Z,3.92
2022-08-17T09:57:44.307Z,4.00
2022-08-17T10:00:25.652Z,3.10
2022-08-17T10:03:05.488Z,2.97
2022-08-17T10:05:57.023Z,3.25
2022-08-17T10:08:46.329Z,3.05
2022-08-17T10:12:09.264Z,3.13
2022-08-17T10:14:44.675Z,2.70
2022-08-17T10:17:56.489Z,2.45
2022-08-17T10:20:39.624Z,2.60
2022-08-17T10:23:33.580Z,2.60
2022-08-17T10:28:43.616Z,2.97
2022-08-17T10:31:34.752Z,2.70
2022-08-17T10:34:08.493Z,2.70
2022-08-17T10:36:38.785Z,2.75
2022-08-17T10:39:21.965Z,2.72
2022-08-17T10:41:55.159Z,2.88
2022-08-17T10:45:19.264Z,2.75
2022-08-17T10:48:27.183Z,2.60
2022-08-17T10:50:59.945Z,3.25
2022-08-17T10:53:33.743Z,2.70
2022-08-17T10:56:22.512Z,2.95
2022-08-17T10:59:01.131Z,2.88
2022-08-17T11:01:34.466Z,2.50
2022-08-17T11:06:47.317Z,2.85
2022-08-17T11:09:39.133Z,2.67
2022-08-17T11:12:20.948Z,2.67
2022-08-17T11:15:00.904Z,2.75
2022-08-17T11:17:53.767Z,2.70
2022-08-17T11:20:52.147Z,2.60
2022-08-17T11:23:47.159Z,3.00
2022-08-17T11:26:26.272Z,2.50
2022-08-17T11:29:01.547Z,2.88
2022-08-17T11:31:38.522Z,2.67
2022-08-17T11:34:17.587Z,2.80
2022-08-17T11:36:54.673Z,3.08
2022-08-17T11:39:44.437Z,2.90
2022-08-17T11:42:37.783Z,2.80
2022-08-17T11:45:32.375Z,2.50
2022-08-17T11:48:53.558Z,2.90
2022-08-17T11:51:36.156Z,2.75
2022-08-17T11:57:02.407Z,3.05
2022-08-17T11:59:46.081Z,2.88
2022-08-17T12:05:27.532Z,2.75
2022-08-17T12:08:18.534Z,2.47
2022-08-17T12:10:58.385Z,2.60
2022-08-17T12:13:37.059Z,2.60
2022-08-17T12:16:08.678Z,2.95
2022-08-17T12:18:38.506Z,2.30
2022-08-17T12:21:15.557Z,2.25
2022-08-17T12:23:56.951Z,2.70
2022-08-17T12:26:33.246Z,2.42
2022-08-17T12:29:38.915Z,2.70
2022-08-17T12:31:56.386Z,2.42
2022-08-17T12:34:36.037Z,2.45
2022-08-17T12:37:12.992Z,2.92
2022-08-17T12:39:51.835Z,2.50
2022-08-17T12:42:26.261Z,2.33
2022-08-17T12:44:53.841Z,2.28
2022-08-17T12:47:23.167Z,2.30
2022-08-17T12:49:55.475Z,2.35
2022-08-17T12:52:32.957Z,2.17
2022-08-17T12:55:15.435Z,2.60
2022-08-17T12:57:46.665Z,2.70
2022-08-17T13:00:31.462Z,2.25
2022-08-17T13:03:09.750Z,2.40
2022-08-17T13:05:53.885Z,2.40
2022-08-17T13:08:32.278Z,2.40
2022-08-17T13:11:05.171Z,2.53
2022-08-17T13:13:39.235Z,2.40
2022-08-17T13:16:27.005Z,2.45
2022-08-17T13:19:12.896Z,2.47
2022-08-17T13:21:48.286Z,2.20
2022-08-17T13:24:24.035Z,2.28
2022-08-17T13:27:15.464Z,2.20
2022-08-17T13:29:45.935Z,2.80
2022-08-17T13:32:33.646Z,2.70
2022-08-17T13:35:11.912Z,2.85
2022-08-17T13:38:04.597Z,2.75
2022-08-17T13:40:36.717Z,2.50
2022-08-17T13:43:05.557Z,2.60
2022-08-17T13:45:51.291Z,2.50
2022-08-17T13:48:32.270Z,2.88
2022-08-17T13:51:02.202Z,2.58
2022-08-17T13:53:40.385Z,2.40
2022-08-17T13:56:33.195Z,2.47
2022-08-17T13:59:11.766Z,2.08
2022-08-17T14:01:43.922Z,2.50
2022-08-17T14:04:20.692Z,2.92
2022-08-17T14:07:22.549Z,2.70
2022-08-17T14:10:01.675Z,2.30
2022-08-17T14:12:32.130Z,2.55
2022-08-17T14:15:00.431Z,3.03
2022-08-17T14:17:31.743Z,2.58
2022-08-17T14:20:04.643Z,2.40
2022-08-17T14:22:35.039Z,2.50
2022-08-17T14:25:02.883Z,2.70
2022-08-17T14:27:34.083Z,2.88
2022-08-17T14:30:14.993Z,2.70
2022-08-17T14:32:43.093Z,2.50
2022-08-17T14:35:12.857Z,2.30
2022-08-17T14:37:40.761Z,2.65
2022-08-17T14:40:11.589Z,2.90
2022-08-17T14:42:41.870Z,2.67
2022-08-17T14:45:29.957Z,2.90
2022-08-17T14:48:00.626Z,2.67
2022-08-17T14:50:28.164Z,2.90
2022-08-17T14:52:57.901Z,2.75
2022-08-17T14:55:26.183Z,2.63
2022-08-17T14:57:53.726Z,2.40
2022-08-17T15:00:21.430Z,2.70
2022-08-17T15:02:55.777Z,2.80
2022-08-17T15:05:26.242Z,2.72
2022-08-17T15:07:54.118Z,3.10
2022-08-17T15:10:22.079Z,2.92
2022-08-17T15:12:49.841Z,2.92
2022-08-17T15:15:18.241Z,2.70
2022-08-17T15:17:46.308Z,3.00
2022-08-17T15:20:21.543Z,2.85
2022-08-17T15:22:59.354Z,2.78
2022-08-17T15:25:29.660Z,2.70
2022-08-17T15:27:57.415Z,2.70
2022-08-17T15:30:26.802Z,2.92
2022-08-17T15:32:55.514Z,2.70
2022-08-17T15:35:28.263Z,2.65
2022-08-17T15:38:11.750Z,2.70
2022-08-17T15:43:26.466Z,2.72
2022-08-17T15:46:04.621Z,3.22
2022-08-17T15:48:43.101Z,2.88
2022-08-17T15:51:28.681Z,2.70
2022-08-17T15:53:58.657Z,2.70
2022-08-17T15:56:27.641Z,3.13
2022-08-17T15:58:55.641Z,2.88
2022-08-17T16:02:11.974Z,2.70
2022-08-17T16:04:30.427Z,3.17
2022-08-17T16:07:00.360Z,3.13
2022-08-17T16:09:28.225Z,2.38
2022-08-17T16:11:56.425Z,2.50
2022-08-17T16:14:32.342Z,3.13
2022-08-17T16:17:04.726Z,3.00
2022-08-17T16:19:34.943Z,2.85
2022-08-17T16:22:04.319Z,2.63
2022-08-17T16:24:33.080Z,2.88
2022-08-17T16:27:01.550Z,2.70
2022-08-17T16:29:29.399Z,2.42
2022-08-17T16:31:58.136Z,2.92
2022-08-17T16:34:25.680Z,2.65
2022-08-17T16:36:55.507Z,2.97
2022-08-17T16:39:29.475Z,2.40
2022-08-17T16:41:57.866Z,2.80
2022-08-17T16:44:29.144Z,2.22
2022-08-17T16:46:57.626Z,2.40
2022-08-17T16:49:37.147Z,2.17
2022-08-17T16:52:10.703Z,2.15
2022-08-17T16:54:41.536Z,2.72
2022-08-17T16:57:11.300Z,2.40
2022-08-17T16:59:43.630Z,2.70
2022-08-17T17:02:23.801Z,2.70
2022-08-17T17:05:11.383Z,2.40
2022-08-17T17:07:55.576Z,2.70
2022-08-17T17:10:29.260Z,3.00
2022-08-17T17:13:01.724Z,2.42
2022-08-17T17:15:57.819Z,2.75
2022-08-17T17:18:40.575Z,2.50
2022-08-17T17:21:14.701Z,2.55
2022-08-17T17:24:00.420Z,2.80
2022-08-17T17:26:34.459Z,2.80
2022-08-17T17:29:09.459Z,2.70
2022-08-17T17:31:46.079Z,2.75
2022-08-17T17:34:16.415Z,2.75
2022-08-17T17:36:48.379Z,3.15
2022-08-17T17:39:20.801Z,2.75
2022-08-17T17:41:58.008Z,2.88
2022-08-17T17:44:30.299Z,2.50
2022-08-17T17:47:00.760Z,2.15
2022-08-17T17:49:33.219Z,2.45
2022-08-17T17:52:19.657Z,2.58
2022-08-17T17:55:19.619Z,4.82
2022-08-17T17:58:08.700Z,3.60
2022-08-17T18:00:57.658Z,3.10
2022-08-17T18:03:52.677Z,3.25
2022-08-17T18:06:59.538Z,2.85
2022-08-17T18:10:19.551Z,3.03
2022-08-17T18:13:14.941Z,2.50
2022-08-17T18:15:51.573Z,2.70
2022-08-17T18:18:22.317Z,2.67
2022-08-17T18:20:56.224Z,2.50
2022-08-17T18:23:28.160Z,2.65
2022-08-17T18:25:58.811Z,2.60
2022-08-17T18:28:31.186Z,2.70
2022-08-17T18:31:07.659Z,2.88
2022-08-17T18:33:36.798Z,2.50
2022-08-17T18:36:06.101Z,2.20
2022-08-17T18:38:40.459Z,3.60
2022-08-17T18:41:25.478Z,3.05
2022-08-17T18:44:22.060Z,2.60
2022-08-17T18:47:07.874Z,3.17
2022-08-17T18:49:35.975Z,2.90
2022-08-17T18:52:18.719Z,2.65
2022-08-17T18:55:09.053Z,2.78
2022-08-17T18:57:41.955Z,2.65
2022-08-17T19:00:36.379Z,2.78
2022-08-17T19:03:16.194Z,2.83
2022-08-17T19:06:14.114Z,2.55
2022-08-17T19:08:42.181Z,2.47
2022-08-17T19:11:29.255Z,2.78
2022-08-17T19:14:06.858Z,3.10
2022-08-17T19:16:51.919Z,2.85
2022-08-17T19:19:51.358Z,2.80
2022-08-17T19:22:58.819Z,3.47
2022-08-17T19:25:34.512Z,2.85
2022-08-17T19:28:12.690Z,3.03
2022-08-17T19:30:56.017Z,2.92
2022-08-17T19:33:25.519Z,2.75
2022-08-17T19:36:05.398Z,2.83
2022-08-17T19:38:48.075Z,3.38
2022-08-17T19:41:43.001Z,2.55
2022-08-17T19:44:17.709Z,3.08
2022-08-17T19:47:19.610Z,2.60
2022-08-17T19:50:04.057Z,3.45
2022-08-17T19:52:46.620Z,3.13
2022-08-17T19:55:43.776Z,2.97
2022-08-17T19:58:27.047Z,2.90
2022-08-17T20:00:55.527Z,3.20
2022-08-17T20:03:32.128Z,2.75
2022-08-17T20:06:12.451Z,3.55
2022-08-17T20:09:14.321Z,3.25
2022-08-17T20:12:11.398Z,3.15
2022-08-17T20:14:53.409Z,2.58
2022-08-17T20:17:28.654Z,3.00
2022-08-17T20:20:07.662Z,3.10
2022-08-17T20:23:12.586Z,2.97
2022-08-17T20:25:52.276Z,2.92
2022-08-17T20:28:26.106Z,3.10
2022-08-17T20:30:54.326Z,3.80
2022-08-17T20:33:25.882Z,3.10
2022-08-17T20:36:24.099Z,3.40
2022-08-17T20:38:56.086Z,3.28
2022-08-17T20:41:29.528Z,3.08
2022-08-17T20:43:57.008Z,3.17
2022-08-17T20:46:36.564Z,2.58
2022-08-17T20:49:26.137Z,3.50
2022-08-17T20:52:01.382Z,3.10
2022-08-17T20:54:44.395Z,3.50
2022-08-17T20:57:30.702Z,3.55
2022-08-17T20:59:58.266Z,2.90
2022-08-17T21:02:27.846Z,3.30
2022-08-17T21:05:06.941Z,2.85
2022-08-17T21:07:42.739Z,3.13
2022-08-17T21:10:24.099Z,3.17
2022-08-17T21:13:39.502Z,3.30
2022-08-17T21:16:25.874Z,2.88
2022-08-17T21:19:06.922Z,3.30
2022-08-17T21:21:49.205Z,3.05
2022-08-17T21:24:51.912Z,2.95
2022-08-17T21:27:39.181Z,3.55
2022-08-17T21:30:10.041Z,3.55
2022-08-17T21:32:42.183Z,3.15
2022-08-17T21:35:28.639Z,3.33
2022-08-17T21:38:02.642Z,3.35
2022-08-17T21:43:17.206Z,3.20
2022-08-17T21:45:55.606Z,3.15
2022-08-17T21:48:25.296Z,3.40
2022-08-17T21:51:12.875Z,3.30
2022-08-17T21:53:48.237Z,3.25
2022-08-17T21:56:40.496Z,3.70
2022-08-17T21:59:21.846Z,3.67
2022-08-17T22:02:01.409Z,3.42
2022-08-17T22:04:38.372Z,4.00
2022-08-17T22:07:09.917Z,3.72
2022-08-17T22:09:47.014Z,3.83
2022-08-17T22:12:23.816Z,3.95
2022-08-17T22:15:02.055Z,3.72
2022-08-17T22:17:45.025Z,3.80
2022-08-17T22:20:17.629Z,3.55
2022-08-17T22:27:02.463Z,3.47
2022-08-17T22:29:42.844Z,3.72
2022-08-17T22:32:10.657Z,4.25
2022-08-17T22:34:40.856Z,3.58
2022-08-17T22:37:28.057Z,3.45
2022-08-17T22:39:59.648Z,4.00
2022-08-17T22:42:29.193Z,3.80
2022-08-17T22:44:56.949Z,3.53
2022-08-17T22:47:38.905Z,3.80
2022-08-17T22:50:21.294Z,3.88
2022-08-17T22:53:17.778Z,4.32
2022-08-17T22:56:12.877Z,3.58
2022-08-17T22:59:12.314Z,3.75
2022-08-17T23:01:41.369Z,4.20
2022-08-17T23:08:24.144Z,4.20
2022-08-17T23:10:52.224Z,3.92
2022-08-17T23:13:21.618Z,3.72
2022-08-17T23:15:51.681Z,4.00
2022-08-17T23:18:19.982Z,3.95
2022-08-17T23:20:47.909Z,3.80
2022-08-17T23:23:18.034Z,3.53
2022-08-17T23:25:48.702Z,4.00
2022-08-17T23:28:17.423Z,3.65
2022-08-17T23:30:48.705Z,3.65
2022-08-17T23:33:31.385Z,3.83
2022-08-17T23:35:59.422Z,3.97
2022-08-17T23:38:28.422Z,4.00
2022-08-17T23:41:00.621Z,3.88
2022-08-17T23:43:30.741Z,3.45
2022-08-17T23:46:00.672Z,3.60
2022-08-17T23:48:35.975Z,3.53
2022-08-17T23:51:17.855Z,3.85
2022-08-17T23:53:48.942Z,3.60
2022-08-17T23:56:20.054Z,3.55
2022-08-17T23:58:48.093Z,4.30
